Time,TemperatureF,DewpointF,PressureIn,WindDirection,WindDirectionDegrees,WindSpeedMPH,WindSpeedGustMPH,Humidity,HourlyPrecipIn,Conditions,Clouds,dailyrainin,SolarRadiationWatts/m^2,SoftwareType,DateUTC
2013-03-21 00:03:00,45.0,12.0,-100.00,NNW,340,5.0,11.0,26,0.00,,,0.00,0.000000,,2013-03-21 04:03:00,
2013-03-21 00:23:00,42.0,18.0,-100.00,NNW,338,5.0,10.0,38,0.00,,,0.00,0.000000,,2013-03-21 04:23:00,
2013-03-21 00:33:00,42.0,18.0,-100.00,NNW,338,5.0,10.0,38,0.00,,,0.00,0.000000,,2013-03-21 04:33:00,
2013-03-21 00:43:00,42.0,18.0,-100.00,NNW,338,5.0,10.0,38,0.00,,,0.00,0.000000,,2013-03-21 04:43:00,
2013-03-21 00:53:00,42.0,18.0,-100.00,NNW,338,5.0,10.0,38,0.00,,,0.00,0.000000,,2013-03-21 04:53:00,
2013-03-21 01:03:00,42.0,18.0,-100.00,NNW,338,5.0,10.0,38,0.00,,,0.00,0.000000,,2013-03-21 05:03:00,
2013-03-21 01:22:00,39.0,22.0,-100.00,NNW,334,6.0,21.0,51,0.00,,,0.00,0.000000,,2013-03-21 05:22:00,
2013-03-21 01:33:00,39.0,22.0,-100.00,NNW,334,6.0,21.0,51,0.00,,,0.00,0.000000,,2013-03-21 05:33:00,
2013-03-21 01:44:00,39.0,22.0,-100.00,NNW,334,6.0,21.0,51,0.00,,,0.00,0.000000,,2013-03-21 05:44:00,
2013-03-21 01:52:00,39.0,22.0,-100.00,NNW,334,6.0,21.0,51,0.00,,,0.00,0.000000,,2013-03-21 05:52:00,
2013-03-21 02:03:00,39.0,22.0,-100.00,NNW,334,6.0,21.0,51,0.00,,,0.00,0.000000,,2013-03-21 06:03:00,
2013-03-21 02:23:00,35.0,19.0,-100.00,NNW,333,3.0,12.0,51,0.00,,,0.00,0.000000,,2013-03-21 06:23:00,
2013-03-21 02:32:00,35.0,19.0,-100.00,NNW,333,3.0,12.0,51,0.00,,,0.00,0.000000,,2013-03-21 06:32:00,
2013-03-21 02:42:00,35.0,19.0,-100.00,NNW,333,3.0,12.0,51,0.00,,,0.00,0.000000,,2013-03-21 06:42:00,
2013-03-21 02:52:00,35.0,19.0,-100.00,NNW,333,3.0,12.0,51,0.00,,,0.00,0.000000,,2013-03-21 06:52:00,
2013-03-21 03:02:00,35.0,19.0,-100.00,NNW,333,3.0,12.0,51,0.00,,,0.00,0.000000,,2013-03-21 07:02:00,
2013-03-21 03:32:00,32.0,17.0,-100.00,North,1,2.0,5.0,53,0.00,,,0.00,0.000000,,2013-03-21 07:32:00,
2013-03-21 03:43:00,32.0,17.0,-100.00,North,1,2.0,5.0,53,0.00,,,0.00,0.000000,,2013-03-21 07:43:00,
2013-03-21 03:53:00,32.0,17.0,-100.00,North,1,2.0,5.0,53,0.00,,,0.00,0.000000,,2013-03-21 07:53:00,
2013-03-21 04:02:00,32.0,17.0,-100.00,North,1,2.0,5.0,53,0.00,,,0.00,0.000000,,2013-03-21 08:02:00,
2013-03-21 04:33:00,33.0,9.0,-100.00,NNW,334,6.0,11.0,36,0.00,,,0.00,0.000000,,2013-03-21 08:33:00,
2013-03-21 04:43:00,33.0,9.0,-100.00,NNW,334,6.0,11.0,36,0.00,,,0.00,0.000000,,2013-03-21 08:43:00,
2013-03-21 04:52:00,33.0,9.0,-100.00,NNW,334,6.0,11.0,36,0.00,,,0.00,0.000000,,2013-03-21 08:52:00,
2013-03-21 05:02:00,33.0,9.0,-100.00,NNW,334,6.0,11.0,36,0.00,,,0.00,0.000000,,2013-03-21 09:02:00,
2013-03-21 05:33:00,32.0,9.0,-100.00,WNW,291,6.0,17.0,37,0.00,,,0.00,0.000000,,2013-03-21 09:33:00,
2013-03-21 05:43:00,32.0,9.0,-100.00,WNW,291,6.0,17.0,37,0.00,,,0.00,0.000000,,2013-03-21 09:43:00,
2013-03-21 05:53:00,32.0,9.0,-100.00,WNW,291,6.0,17.0,37,0.00,,,0.00,0.000000,,2013-03-21 09:53:00,
2013-03-21 06:03:00,32.0,9.0,-100.00,WNW,291,6.0,17.0,37,0.00,,,0.00,0.000000,,2013-03-21 10:03:00,
2013-03-21 06:23:00,30.0,9.0,-100.00,WNW,301,3.0,12.0,41,0.00,,,0.00,0.000000,,2013-03-21 10:23:00,
2013-03-21 06:34:00,30.0,9.0,-100.00,WNW,301,3.0,12.0,41,0.00,,,0.00,0.000000,,2013-03-21 10:34:00,
2013-03-21 06:43:00,30.0,9.0,-100.00,WNW,301,3.0,12.0,41,0.00,,,0.00,0.000000,,2013-03-21 10:43:00,
2013-03-21 06:53:00,30.0,9.0,-100.00,WNW,301,3.0,12.0,41,0.00,,,0.00,0.000000,,2013-03-21 10:53:00,
2013-03-21 07:03:00,30.0,9.0,-100.00,WNW,301,3.0,12.0,41,0.00,,,0.00,0.000000,,2013-03-21 11:03:00,
2013-03-21 07:33:00,29.0,9.0,-100.00,NW,308,4.0,8.0,42,0.00,,,0.00,0.000000,,2013-03-21 11:33:00,
2013-03-21 07:43:00,29.0,9.0,-100.00,NW,308,4.0,8.0,42,0.00,,,0.00,0.000000,,2013-03-21 11:43:00,
2013-03-21 07:53:00,29.0,9.0,-100.00,NW,308,4.0,8.0,42,0.00,,,0.00,0.000000,,2013-03-21 11:53:00,
2013-03-21 08:03:00,29.0,9.0,-100.00,NW,308,4.0,8.0,42,0.00,,,0.00,0.000000,,2013-03-21 12:03:00,
2013-03-21 08:33:00,29.0,9.0,-100.00,West,276,4.0,9.0,43,0.00,,,0.00,11.000000,,2013-03-21 12:33:00,
2013-03-21 08:43:00,29.0,9.0,-100.00,West,276,4.0,9.0,43,0.00,,,0.00,11.000000,,2013-03-21 12:43:00,
2013-03-21 08:53:00,29.0,9.0,-100.00,West,276,4.0,9.0,43,0.00,,,0.00,11.000000,,2013-03-21 12:53:00,
2013-03-21 09:03:00,29.0,9.0,-100.00,West,276,4.0,9.0,43,0.00,,,0.00,11.000000,,2013-03-21 13:03:00,
2013-03-21 09:33:00,30.0,10.0,-100.00,NW,310,6.0,11.0,42,0.00,,,0.00,45.000000,,2013-03-21 13:33:00,
2013-03-21 09:43:00,30.0,10.0,-100.00,NW,310,6.0,11.0,42,0.00,,,0.00,45.000000,,2013-03-21 13:43:00,
2013-03-21 09:53:00,30.0,10.0,-100.00,NW,310,6.0,11.0,42,0.00,,,0.00,45.000000,,2013-03-21 13:53:00,
2013-03-21 10:02:00,30.0,10.0,-100.00,NW,310,6.0,11.0,42,0.00,,,0.00,45.000000,,2013-03-21 14:02:00,
2013-03-21 10:04:00,33.0,11.0,-100.00,NW,310,7.0,12.0,40,0.00,,,0.00,135.000000,,2013-03-21 14:04:00,
2013-03-21 10:32:00,33.0,11.0,-100.00,NW,310,7.0,12.0,40,0.00,,,0.00,135.000000,,2013-03-21 14:32:00,
2013-03-21 10:43:00,33.0,11.0,-100.00,NW,310,7.0,12.0,40,0.00,,,0.00,135.000000,,2013-03-21 14:43:00,
2013-03-21 10:52:00,33.0,11.0,-100.00,NW,310,7.0,12.0,40,0.00,,,0.00,135.000000,,2013-03-21 14:52:00,
2013-03-21 11:33:00,36.0,11.0,-100.00,North,359,5.0,12.0,35,0.00,,,0.00,694.000000,,2013-03-21 15:33:00,
2013-03-21 11:43:00,36.0,11.0,-100.00,North,359,5.0,12.0,35,0.00,,,0.00,694.000000,,2013-03-21 15:43:00,
2013-03-21 11:53:00,36.0,11.0,-100.00,North,359,5.0,12.0,35,0.00,,,0.00,694.000000,,2013-03-21 15:53:00,
2013-03-21 12:03:00,36.0,11.0,-100.00,North,359,5.0,12.0,35,0.00,,,0.00,694.000000,,2013-03-21 16:03:00,
2013-03-21 12:33:00,37.0,8.0,-100.00,NNW,335,7.0,16.0,30,0.00,,,0.00,831.000000,,2013-03-21 16:33:00,
2013-03-21 12:42:00,37.0,8.0,-100.00,NNW,335,7.0,16.0,30,0.00,,,0.00,831.000000,,2013-03-21 16:42:00,
2013-03-21 12:53:00,37.0,8.0,-100.00,NNW,335,7.0,16.0,30,0.00,,,0.00,831.000000,,2013-03-21 16:53:00,
2013-03-21 13:03:00,37.0,8.0,-100.00,NNW,335,7.0,16.0,30,0.00,,,0.00,831.000000,,2013-03-21 17:03:00,
2013-03-21 13:33:00,39.0,9.0,-100.00,WNW,298,7.0,16.0,28,0.00,,,0.00,954.000000,,2013-03-21 17:33:00,
2013-03-21 13:43:00,39.0,9.0,-100.00,WNW,298,7.0,16.0,28,0.00,,,0.00,954.000000,,2013-03-21 17:43:00,
2013-03-21 13:53:00,39.0,9.0,-100.00,WNW,298,7.0,16.0,28,0.00,,,0.00,954.000000,,2013-03-21 17:53:00,
2013-03-21 14:02:00,39.0,9.0,-100.00,WNW,298,7.0,16.0,28,0.00,,,0.00,954.000000,,2013-03-21 18:02:00,
2013-03-21 14:23:00,40.0,8.0,-100.00,WNW,285,9.0,19.0,26,0.00,,,0.00,996.000000,,2013-03-21 18:23:00,
2013-03-21 14:32:00,40.0,8.0,-100.00,WNW,285,9.0,19.0,26,0.00,,,0.00,996.000000,,2013-03-21 18:32:00,
2013-03-21 14:43:00,40.0,8.0,-100.00,WNW,285,9.0,19.0,26,0.00,,,0.00,996.000000,,2013-03-21 18:43:00,
2013-03-21 14:52:00,40.0,8.0,-100.00,WNW,285,9.0,19.0,26,0.00,,,0.00,996.000000,,2013-03-21 18:52:00,
2013-03-21 15:02:00,40.0,8.0,-100.00,WNW,285,9.0,19.0,26,0.00,,,0.00,996.000000,,2013-03-21 19:02:00,
2013-03-21 15:23:00,40.0,8.0,-100.00,NNW,343,11.0,22.0,26,0.00,,,0.00,959.000000,,2013-03-21 19:23:00,
2013-03-21 15:32:00,40.0,8.0,-100.00,NNW,343,11.0,22.0,26,0.00,,,0.00,959.000000,,2013-03-21 19:32:00,
2013-03-21 15:43:00,40.0,8.0,-100.00,NNW,343,11.0,22.0,26,0.00,,,0.00,959.000000,,2013-03-21 19:43:00,
2013-03-21 15:53:00,40.0,8.0,-100.00,NNW,343,11.0,22.0,26,0.00,,,0.00,959.000000,,2013-03-21 19:53:00,
2013-03-21 16:02:00,40.0,8.0,-100.00,NNW,343,11.0,22.0,26,0.00,,,0.00,959.000000,,2013-03-21 20:02:00,
2013-03-21 16:33:00,39.0,7.0,-100.00,NNW,338,12.0,21.0,26,0.00,,,0.00,851.000000,,2013-03-21 20:33:00,
2013-03-21 16:43:00,39.0,7.0,-100.00,NNW,338,12.0,21.0,26,0.00,,,0.00,851.000000,,2013-03-21 20:43:00,
2013-03-21 16:53:00,39.0,7.0,-100.00,NNW,338,12.0,21.0,26,0.00,,,0.00,851.000000,,2013-03-21 20:53:00,
2013-03-21 17:03:00,39.0,7.0,-100.00,NNW,338,12.0,21.0,26,0.00,,,0.00,851.000000,,2013-03-21 21:03:00,
2013-03-21 17:23:00,39.0,7.0,-100.00,NNW,327,10.0,22.0,26,0.00,,,0.00,683.000000,,2013-03-21 21:23:00,
2013-03-21 17:33:00,39.0,7.0,-100.00,NNW,327,10.0,22.0,26,0.00,,,0.00,683.000000,,2013-03-21 21:33:00,
2013-03-21 17:43:00,39.0,7.0,-100.00,NNW,327,10.0,22.0,26,0.00,,,0.00,683.000000,,2013-03-21 21:43:00,
2013-03-21 17:53:00,39.0,7.0,-100.00,NNW,327,10.0,22.0,26,0.00,,,0.00,683.000000,,2013-03-21 21:53:00,
2013-03-21 18:03:00,39.0,7.0,-100.00,NNW,327,10.0,22.0,26,0.00,,,0.00,683.000000,,2013-03-21 22:03:00,
2013-03-21 18:34:00,38.0,6.0,-100.00,NW,307,9.0,18.0,26,0.00,,,0.00,469.000000,,2013-03-21 22:34:00,
2013-03-21 18:43:00,38.0,6.0,-100.00,NW,307,9.0,18.0,26,0.00,,,0.00,469.000000,,2013-03-21 22:43:00,
2013-03-21 18:53:00,38.0,6.0,-100.00,NW,307,9.0,18.0,26,0.00,,,0.00,469.000000,,2013-03-21 22:53:00,
2013-03-21 19:02:00,38.0,6.0,-100.00,NW,307,9.0,18.0,26,0.00,,,0.00,469.000000,,2013-03-21 23:02:00,
2013-03-21 19:22:00,37.0,6.0,-100.00,NNW,338,6.0,15.0,27,0.00,,,0.00,211.000000,,2013-03-21 23:22:00,
2013-03-21 19:33:00,37.0,6.0,-100.00,NNW,338,6.0,15.0,27,0.00,,,0.00,211.000000,,2013-03-21 23:33:00,
2013-03-21 19:43:00,37.0,6.0,-100.00,NNW,338,6.0,15.0,27,0.00,,,0.00,211.000000,,2013-03-21 23:43:00,
2013-03-21 19:53:00,37.0,6.0,-100.00,NNW,338,6.0,15.0,27,0.00,,,0.00,211.000000,,2013-03-21 23:53:00,
2013-03-21 20:03:00,37.0,6.0,-100.00,NNW,338,6.0,15.0,27,0.00,,,0.00,211.000000,,2013-03-22 00:03:00,
2013-03-21 20:22:00,34.0,7.0,-100.00,North,349,3.0,10.0,32,0.00,,,0.00,11.000000,,2013-03-22 00:22:00,
2013-03-21 20:32:00,34.0,7.0,-100.00,North,349,3.0,10.0,32,0.00,,,0.00,11.000000,,2013-03-22 00:32:00,
2013-03-21 20:42:00,34.0,7.0,-100.00,North,349,3.0,10.0,32,0.00,,,0.00,11.000000,,2013-03-22 00:42:00,
2013-03-21 20:52:00,34.0,7.0,-100.00,North,349,3.0,10.0,32,0.00,,,0.00,11.000000,,2013-03-22 00:52:00,
2013-03-21 21:03:00,34.0,7.0,-100.00,North,349,3.0,10.0,32,0.00,,,0.00,11.000000,,2013-03-22 01:03:00,
2013-03-21 21:33:00,30.0,8.0,-100.00,ESE,107,1.0,5.0,38,0.00,,,0.00,0.000000,,2013-03-22 01:33:00,
2013-03-21 21:43:00,30.0,8.0,-100.00,ESE,107,1.0,5.0,38,0.00,,,0.00,0.000000,,2013-03-22 01:43:00,
2013-03-21 21:53:00,30.0,8.0,-100.00,ESE,107,1.0,5.0,38,0.00,,,0.00,0.000000,,2013-03-22 01:53:00,
2013-03-21 22:02:00,30.0,8.0,-100.00,ESE,107,1.0,5.0,38,0.00,,,0.00,0.000000,,2013-03-22 02:02:00,
2013-03-21 22:32:00,30.0,9.0,-100.00,ENE,72,2.0,7.0,40,0.00,,,0.00,0.000000,,2013-03-22 02:32:00,
2013-03-21 22:43:00,30.0,9.0,-100.00,ENE,72,2.0,7.0,40,0.00,,,0.00,0.000000,,2013-03-22 02:43:00,
2013-03-21 22:53:00,30.0,9.0,-100.00,ENE,72,2.0,7.0,40,0.00,,,0.00,0.000000,,2013-03-22 02:53:00,
2013-03-21 23:02:00,30.0,9.0,-100.00,ENE,72,2.0,7.0,40,0.00,,,0.00,0.000000,,2013-03-22 03:02:00,
2013-03-21 23:33:00,29.0,12.0,-100.00,NNE,24,3.0,5.0,48,0.00,,,0.00,0.000000,,2013-03-22 03:33:00,
2013-03-21 23:43:00,29.0,12.0,-100.00,NNE,24,3.0,5.0,48,0.00,,,0.00,0.000000,,2013-03-22 03:43:00,
2013-03-21 23:53:00,29.0,12.0,-100.00,NNE,24,3.0,5.0,48,0.00,,,0.00,0.000000,,2013-03-22 03:53:00,